Bookmark and Share
Track history (hours):
 

American Glory

More information available from US FCC via Universal Licensing System and Coast Guard Vessel Documentation Center.

Last reported at 2013-Oct-27 10:09 UTC. Time now 2014-Apr-23 09:27 UTC.
Position N 34°29' W 076°48'.
Warning: this ship's position is months out of date.

; draft 2.1 m.

Type: Passenger vessel. MMSI: 366858820.

NotesDate/timePositionNaut miles runAvg speedWind from/ knotsBaromVisibWave heightAir tempDewpointWater temp
2013-Oct-27 10:09N 34°29' W 076°48'6 9.3
2013-Oct-27 09:33N 34°27' W 076°41'330 8.6
2013-Oct-25 19:24N 39°34' W 074°10'910.2
2013-Oct-25 18:33N 39°42' W 074°05'1010.2
2013-Oct-25 17:33N 39°52' W 074°02'39 9.7
2013-Oct-25 13:32N 40°31' W 073°59'10 9.9
2013-Oct-25 12:33N 40°40' W 074°03'5 0.4
2013-Oct-25 00:19N 40°45' W 074°01'3 4.5
2013-Oct-24 23:34N 40°41' W 074°02'  
2013-Oct-19 17:23N 40°45' W 074°01'1 0.1
2013-Oct-19 11:31N 40°45' W 074°01'0 0.0
2013-Oct-19 10:31N 40°45' W 074°01'0 0.0
2013-Oct-19 09:31N 40°45' W 074°01'0 0.0
2013-Oct-19 08:19N 40°45' W 074°01'0 0.0
2013-Oct-19 07:25N 40°45' W 074°01'0 0.0
2013-Oct-19 05:25N 40°45' W 074°01'0 0.0
2013-Oct-18 23:31N 40°45' W 074°01'0 0.1
2013-Oct-18 22:32N 40°45' W 074°01'1 0.7
2013-Oct-18 21:33N 40°45' W 074°01'2611.3
2013-Oct-18 19:14N 41°12' W 073°56'  

Dump ship's entire track history

sailing weather and tide predictions

American Glory — WDA8860 — position and weather